Time;durP1;ratioP1;P1;durP2;ratioP2;P2;SDS_P1;SDS_P2;PMS_P1;PMS_P2;Temp;Humidity;BMP_temperature;BMP_pressure;BME280_temperature;BME280_humidity;BME280_pressure;Samples;Min_cycle;Max_cycle;Signal;HPM_P1;HPM_P2
2022/01/28 00:00:08;;;;;;;19.70;4.43;;;4.40;99.90;;;;;;5074617;28;20227;-80
2022/01/28 00:05:22;;;;;;;27.77;5.67;;;4.40;99.90;;;;;;5072971;28;20317;-78
2022/01/28 00:07:50;;;;;;;21.80;4.00;;;4.40;99.90;;;;;;5077515;28;20219;-78
2022/01/28 00:10:18;;;;;;;16.67;4.30;;;4.40;99.90;;;;;;5081996;28;20640;-78
2022/01/28 00:15:33;;;;;;;21.63;4.67;;;4.30;99.90;;;;;;5076812;28;20230;-78
2022/01/28 00:36:27;;;;;;;21.93;3.90;;;4.20;99.90;;;;;;5080130;28;20230;-78
2022/01/28 00:40:21;;;;;;;27.37;5.03;;;4.20;99.90;;;;;;5078007;28;20590;-77
2022/01/28 00:42:47;;;;;;;20.87;4.90;;;4.10;99.90;;;;;;5082622;28;20256;-78
2022/01/28 00:45:14;;;;;;;17.83;4.17;;;4.10;99.90;;;;;;5078474;28;20222;-78
2022/01/28 00:47:41;;;;;;;20.00;3.63;;;4.00;99.90;;;;;;5081233;28;20219;-78
2022/01/28 00:50:09;;;;;;;17.70;3.90;;;4.00;99.90;;;;;;5078786;28;20234;-79
2022/01/28 00:52:36;;;;;;;25.57;4.17;;;4.00;99.90;;;;;;5074691;28;20675;-77
2022/01/28 00:55:03;;;;;;;19.17;3.90;;;3.90;99.90;;;;;;5071962;28;20246;-77
2022/01/28 00:57:31;;;;;;;21.13;4.10;;;3.90;99.90;;;;;;5078004;28;20774;-78
2022/01/28 00:59:59;;;;;;;19.27;4.23;;;3.90;99.90;;;;;;5080427;28;20225;-76
2022/01/28 01:02:26;;;;;;;17.20;3.63;;;3.80;99.90;;;;;;5079770;28;20231;-76
2022/01/28 01:04:52;;;;;;;19.70;4.97;;;3.80;99.90;;;;;;5074571;28;20319;-78
2022/01/28 01:07:19;;;;;;;20.50;3.93;;;3.80;99.90;;;;;;5076122;28;20226;-77
2022/01/28 01:09:48;;;;;;;18.70;3.87;;;3.80;99.90;;;;;;5085551;28;20319;-78
2022/01/28 01:12:17;;;;;;;12.80;3.57;;;3.80;99.90;;;;;;5074018;28;20248;-78
2022/01/28 01:14:46;;;;;;;14.83;3.70;;;3.80;99.90;;;;;;5073400;28;20978;-78
2022/01/28 01:17:25;;;;;;;21.97;3.77;;;3.80;99.90;;;;;;5077469;28;20291;-78
2022/01/28 01:19:59;;;;;;;21.73;4.10;;;3.80;99.90;;;;;;5078306;28;21118;-78
2022/01/28 01:22:34;;;;;;;18.73;3.57;;;3.80;99.90;;;;;;5075279;28;20241;-78
2022/01/28 01:25:04;;;;;;;20.37;4.60;;;3.90;99.90;;;;;;5072949;28;20708;-76
2022/01/28 01:27:31;;;;;;;20.60;4.63;;;3.80;99.90;;;;;;5074005;28;21013;-76
2022/01/28 01:29:59;;;;;;;22.20;4.47;;;4.00;99.90;;;;;;5074638;28;20328;-76
2022/01/28 01:32:25;;;;;;;18.43;3.73;;;3.90;99.90;;;;;;5074419;28;20223;-76
2022/01/28 01:34:52;;;;;;;20.67;4.10;;;3.90;99.90;;;;;;5075694;28;20233;-76
2022/01/28 01:37:19;;;;;;;20.33;4.93;;;3.90;99.90;;;;;;5077839;28;20731;-76
2022/01/28 01:39:45;;;;;;;17.60;4.27;;;3.90;99.90;;;;;;5076355;28;20226;-76
2022/01/28 01:42:22;;;;;;;17.73;3.97;;;3.90;99.90;;;;;;5073869;28;20322;-76
2022/01/28 01:52:59;;;;;;;20.33;4.53;;;3.90;99.90;;;;;;5079833;28;20216;-78
2022/01/28 01:55:26;;;;;;;20.90;5.07;;;3.90;99.90;;;;;;5082495;28;20230;-78
2022/01/28 01:57:54;;;;;;;18.50;3.80;;;3.90;99.90;;;;;;5082463;28;20309;-78
2022/01/28 02:00:21;;;;;;;16.40;3.57;;;3.80;99.90;;;;;;5078157;28;20926;-78
2022/01/28 02:02:49;;;;;;;15.80;3.43;;;3.80;99.90;;;;;;5082906;28;20229;-78
2022/01/28 02:05:15;;;;;;;24.23;4.00;;;3.80;99.90;;;;;;5078914;28;20232;-77
2022/01/28 02:07:45;;;;;;;27.03;4.13;;;3.70;99.90;;;;;;5082484;28;20230;-79
2022/01/28 02:10:11;;;;;;;19.37;3.33;;;3.80;99.90;;;;;;5077100;28;20222;-78
2022/01/28 02:12:46;;;;;;;20.87;4.10;;;3.70;99.90;;;;;;5081252;28;20234;-78
2022/01/28 02:15:12;;;;;;;20.00;4.20;;;3.70;99.90;;;;;;5075870;28;20234;-78
2022/01/28 02:17:40;;;;;;;21.93;4.37;;;3.70;99.90;;;;;;5078910;28;20241;-77
2022/01/28 02:20:13;;;;;;;19.10;4.00;;;3.70;99.90;;;;;;5075387;28;20318;-77
2022/01/28 02:22:42;;;;;;;15.07;3.47;;;3.60;99.90;;;;;;5080807;28;20599;-77
2022/01/28 02:25:21;;;;;;;19.67;5.30;;;3.70;99.90;;;;;;5076757;28;20546;-77
2022/01/28 02:27:47;;;;;;;19.33;3.50;;;3.70;99.90;;;;;;5081201;28;20249;-78
2022/01/28 02:30:14;;;;;;;17.70;3.20;;;3.60;99.90;;;;;;5080276;28;20247;-78
2022/01/28 02:32:43;;;;;;;16.43;3.57;;;3.60;99.90;;;;;;5079536;28;20433;-78
2022/01/28 02:35:09;;;;;;;21.60;3.50;;;3.60;99.90;;;;;;5079789;28;20238;-78
2022/01/28 02:37:36;;;;;;;17.53;3.43;;;3.60;99.90;;;;;;5079361;28;21218;-78
2022/01/28 02:40:05;;;;;;;17.73;3.20;;;3.60;99.90;;;;;;5077342;28;20228;-77
2022/01/28 02:42:45;;;;;;;16.10;3.10;;;3.60;99.90;;;;;;5074895;28;20309;-78
2022/01/28 02:45:20;;;;;;;18.63;3.27;;;3.60;99.90;;;;;;5073582;28;20227;-78
2022/01/28 02:47:51;;;;;;;20.23;3.60;;;3.60;99.90;;;;;;5084484;28;20256;-78
2022/01/28 02:50:18;;;;;;;16.43;3.73;;;3.50;99.90;;;;;;5080291;28;20286;-79
2022/01/28 02:52:54;;;;;;;16.50;3.43;;;3.50;99.90;;;;;;5080532;28;20227;-78
2022/01/28 02:55:22;;;;;;;19.70;4.80;;;3.50;99.90;;;;;;5078541;28;20275;-78
2022/01/28 02:58:03;;;;;;;15.83;3.53;;;3.50;99.90;;;;;;5076926;28;20227;-78
2022/01/28 03:00:29;;;;;;;13.43;3.03;;;3.40;99.90;;;;;;5079983;28;20390;-78
2022/01/28 03:02:56;;;;;;;17.37;3.97;;;3.40;99.90;;;;;;5084069;28;20862;-77
2022/01/28 03:05:35;;;;;;;20.50;4.00;;;3.40;99.90;;;;;;5078845;28;20233;-78
2022/01/28 03:08:03;;;;;;;14.53;3.67;;;3.40;99.90;;;;;;5078769;28;20263;-77
2022/01/28 03:10:42;;;;;;;16.23;3.33;;;3.40;99.90;;;;;;5079728;28;20225;-77
2022/01/28 03:13:31;;;;;;;14.87;3.37;;;3.40;99.90;;;;;;5078572;28;20863;-79
2022/01/28 03:16:08;;;;;;;20.80;3.90;;;3.40;99.90;;;;;;5074128;28;20225;-79
2022/01/28 03:18:46;;;;;;;18.17;3.53;;;3.50;99.90;;;;;;5082968;28;20639;-78
2022/01/28 03:21:23;;;;;;;19.50;3.60;;;3.50;99.90;;;;;;5075061;28;20278;-79
2022/01/28 03:23:50;;;;;;;20.80;3.97;;;3.60;99.90;;;;;;5074513;28;20218;-79
2022/01/28 03:26:19;;;;;;;19.10;3.77;;;3.60;99.90;;;;;;5083053;28;20236;-78
2022/01/28 03:28:46;;;;;;;19.47;4.77;;;3.70;99.90;;;;;;5079696;28;20234;-79
2022/01/28 03:31:12;;;;;;;19.37;4.23;;;3.70;99.90;;;;;;5080583;28;20297;-79
2022/01/28 03:33:39;;;;;;;17.17;3.50;;;3.70;99.90;;;;;;5077181;28;20227;-79
2022/01/28 03:36:09;;;;;;;18.93;4.27;;;3.70;99.90;;;;;;5079377;28;20262;-79
2022/01/28 03:38:37;;;;;;;21.07;4.23;;;3.70;99.90;;;;;;5083174;27;20226;-79
2022/01/28 03:41:04;;;;;;;18.10;4.47;;;3.70;99.90;;;;;;5080834;28;20222;-79
2022/01/28 03:43:32;;;;;;;16.07;4.10;;;3.70;99.90;;;;;;5074364;28;20652;-79
2022/01/28 03:45:59;;;;;;;20.17;4.27;;;3.70;99.90;;;;;;5079102;28;20234;-79
2022/01/28 03:48:25;;;;;;;18.33;3.70;;;3.60;99.90;;;;;;5074748;28;20234;-79
2022/01/28 03:50:52;;;;;;;17.93;3.87;;;3.50;99.90;;;;;;5081262;28;20253;-79
2022/01/28 03:53:19;;;;;;;20.80;3.67;;;3.50;99.90;;;;;;5074587;28;20692;-79
2022/01/28 03:55:46;;;;;;;20.97;4.07;;;3.40;99.90;;;;;;5080068;28;20234;-79
2022/01/28 03:58:14;;;;;;;20.17;3.77;;;3.40;99.90;;;;;;5076632;28;20886;-80
2022/01/28 04:00:42;;;;;;;20.17;3.73;;;3.30;99.90;;;;;;5095728;28;20223;-79
2022/01/28 04:03:13;;;;;;;18.37;4.27;;;3.30;99.90;;;;;;5069206;28;20233;-79
2022/01/28 04:11:28;;;;;;;15.27;3.70;;;3.20;99.90;;;;;;5079346;28;20228;-78
2022/01/28 04:13:56;;;;;;;16.83;3.67;;;3.20;99.90;;;;;;5081333;28;20234;-79
2022/01/28 04:17:18;;;;;;;16.27;3.43;;;3.20;99.90;;;;;;5079362;28;20265;-79
2022/01/28 04:19:19;;;;;;;25.67;4.53;;;3.20;99.90;;;;;;5076447;28;20420;-79
2022/01/28 04:21:46;;;;;;;20.30;5.13;;;3.20;99.90;;;;;;5076253;28;20237;-79
2022/01/28 04:24:13;;;;;;;20.47;4.00;;;3.10;99.90;;;;;;5076778;28;20653;-79
2022/01/28 04:26:40;;;;;;;18.13;4.40;;;3.10;99.90;;;;;;5078635;28;20356;-79
2022/01/28 04:29:07;;;;;;;22.83;4.33;;;3.10;99.90;;;;;;5082320;28;20260;-78
2022/01/28 04:31:39;;;;;;;19.80;4.80;;;3.10;99.90;;;;;;5077918;28;20255;-77
2022/01/28 04:34:06;;;;;;;24.07;4.10;;;3.10;99.90;;;;;;5072181;28;20273;-78
2022/01/28 04:36:37;;;;;;;20.57;3.30;;;3.10;99.90;;;;;;5082018;28;20259;-78
2022/01/28 04:39:11;;;;;;;24.87;4.93;;;3.10;99.90;;;;;;5079335;28;20318;-78
2022/01/28 04:41:49;;;;;;;16.37;4.13;;;3.00;99.90;;;;;;5084165;28;20356;-77
2022/01/28 04:44:22;;;;;;;22.47;4.07;;;3.00;99.90;;;;;;5084195;28;20309;-77
2022/01/28 04:46:59;;;;;;;18.77;4.47;;;3.00;99.90;;;;;;5081664;28;20243;-78
2022/01/28 04:49:36;;;;;;;24.30;4.27;;;3.00;99.90;;;;;;5079054;28;20301;-78
2022/01/28 04:52:30;;;;;;;17.17;3.77;;;3.00;99.90;;;;;;5077593;28;20244;-78
2022/01/28 04:55:06;;;;;;;20.13;3.53;;;3.00;99.90;;;;;;5077924;28;20677;-78
2022/01/28 04:57:42;;;;;;;18.17;4.07;;;3.00;99.90;;;;;;5074500;28;20228;-78
2022/01/28 05:00:19;;;;;;;16.37;3.30;;;3.00;99.90;;;;;;5073451;28;20240;-78
2022/01/28 05:03:11;;;;;;;19.07;4.17;;;3.00;99.90;;;;;;5074177;28;20221;-78
2022/01/28 05:11:46;;;;;;;18.87;3.93;;;3.00;99.90;;;;;;5016992;28;20236;-81
2022/01/28 05:14:42;;;;;;;13.00;3.63;;;3.00;99.90;;;;;;5075536;28;20224;-82
2022/01/28 05:25:46;;;;;;;15.20;3.47;;;3.10;99.90;;;;;;5063463;28;20220;-83
2022/01/28 05:28:17;;;;;;;16.93;3.97;;;3.10;99.90;;;;;;5079284;28;20295;-81
2022/01/28 05:30:44;;;;;;;18.53;3.93;;;3.20;99.90;;;;;;5076169;28;20234;-82
2022/01/28 05:33:10;;;;;;;17.13;3.43;;;3.20;99.90;;;;;;5083645;28;20227;-81
2022/01/28 05:35:39;;;;;;;18.57;3.57;;;3.20;99.90;;;;;;5085285;28;20227;-81
2022/01/28 05:38:05;;;;;;;18.40;3.50;;;3.20;99.90;;;;;;5089156;28;20900;-81
2022/01/28 05:40:32;;;;;;;22.10;3.77;;;3.20;99.90;;;;;;5076000;28;20231;-81
2022/01/28 05:42:59;;;;;;;21.63;4.67;;;3.20;99.90;;;;;;5086168;28;20872;-82
2022/01/28 05:45:25;;;;;;;15.03;3.77;;;3.20;99.90;;;;;;5080338;28;20767;-81
2022/01/28 05:47:52;;;;;;;14.13;3.87;;;3.20;99.90;;;;;;5082296;28;20238;-81
2022/01/28 05:50:19;;;;;;;16.87;4.87;;;3.20;99.90;;;;;;5079353;28;20250;-81
2022/01/28 05:52:47;;;;;;;19.27;4.40;;;3.20;99.90;;;;;;5086959;28;20654;-81
2022/01/28 05:55:14;;;;;;;17.73;3.90;;;3.20;99.90;;;;;;5083540;28;20228;-81
2022/01/28 05:57:41;;;;;;;22.57;4.67;;;3.20;99.90;;;;;;5085983;28;20952;-81
2022/01/28 06:00:09;;;;;;;20.40;4.70;;;3.20;99.90;;;;;;5081785;28;20717;-81
2022/01/28 06:02:44;;;;;;;18.13;4.47;;;3.20;99.90;;;;;;5085848;28;20927;-82
2022/01/28 06:05:11;;;;;;;24.97;4.63;;;3.20;99.90;;;;;;5075570;28;20247;-76
2022/01/28 06:07:41;;;;;;;15.63;4.43;;;3.20;99.90;;;;;;5079032;28;20590;-77
2022/01/28 06:10:10;;;;;;;26.47;4.40;;;3.10;99.90;;;;;;5071583;28;20222;-77
2022/01/28 06:12:41;;;;;;;23.50;4.37;;;3.10;99.90;;;;;;5072523;28;20249;-77
2022/01/28 06:15:10;;;;;;;18.33;3.40;;;3.10;99.90;;;;;;5073989;28;20226;-77
2022/01/28 06:17:37;;;;;;;18.23;4.57;;;3.10;99.90;;;;;;5082476;28;20245;-77
2022/01/28 06:20:05;;;;;;;21.03;4.03;;;3.00;99.90;;;;;;5081212;28;20218;-77
2022/01/28 06:22:32;;;;;;;19.10;4.27;;;3.00;99.90;;;;;;5080059;28;20285;-77
2022/01/28 06:24:59;;;;;;;19.07;3.97;;;3.00;99.90;;;;;;5084409;28;20237;-77
2022/01/28 06:27:27;;;;;;;14.27;4.00;;;3.00;99.90;;;;;;5078909;28;20766;-77
2022/01/28 06:29:54;;;;;;;21.40;4.10;;;3.00;99.90;;;;;;5075990;28;20298;-77
2022/01/28 06:32:20;;;;;;;13.83;3.53;;;3.00;99.80;;;;;;5081575;28;20224;-77
2022/01/28 06:34:47;;;;;;;21.73;3.53;;;3.10;99.80;;;;;;5081828;28;20238;-77
2022/01/28 06:37:14;;;;;;;13.43;3.73;;;3.10;99.80;;;;;;5081060;28;20240;-77
2022/01/28 06:39:40;;;;;;;14.27;4.27;;;3.10;99.60;;;;;;5077291;28;20233;-77
2022/01/28 06:42:08;;;;;;;17.33;3.47;;;3.10;99.60;;;;;;5082227;28;20242;-77
2022/01/28 06:44:36;;;;;;;22.23;3.63;;;3.20;99.50;;;;;;5080129;28;20245;-77
2022/01/28 06:47:03;;;;;;;12.43;3.30;;;3.20;99.30;;;;;;5088108;28;20225;-77
2022/01/28 06:49:31;;;;;;;13.03;3.10;;;3.20;99.60;;;;;;5083246;28;20302;-77
2022/01/28 06:51:58;;;;;;;15.40;3.10;;;3.20;99.00;;;;;;5081996;28;20225;-77
2022/01/28 06:54:25;;;;;;;13.23;3.53;;;3.20;99.00;;;;;;5078445;28;20226;-77
2022/01/28 06:56:51;;;;;;;14.27;4.07;;;3.20;98.70;;;;;;5081969;28;20226;-77
2022/01/28 06:59:18;;;;;;;17.23;3.57;;;3.20;99.00;;;;;;5081183;28;20252;-77
2022/01/28 07:01:46;;;;;;;14.60;4.03;;;3.20;98.90;;;;;;5082874;28;20237;-77
2022/01/28 07:04:14;;;;;;;19.57;3.63;;;3.20;98.80;;;;;;5076862;28;21188;-77
2022/01/28 07:06:41;;;;;;;19.23;3.67;;;3.20;98.80;;;;;;5084285;28;20226;-77
2022/01/28 07:09:09;;;;;;;19.57;4.37;;;3.20;98.70;;;;;;5084381;28;20275;-77
2022/01/28 07:11:35;;;;;;;13.70;3.90;;;3.20;98.70;;;;;;5078628;28;20227;-77
2022/01/28 07:14:02;;;;;;;15.37;4.07;;;3.10;98.70;;;;;;5076825;28;20226;-77
2022/01/28 07:16:29;;;;;;;18.93;4.13;;;3.20;98.80;;;;;;5077976;28;20231;-77
2022/01/28 07:18:58;;;;;;;19.53;4.50;;;3.10;98.60;;;;;;5083277;28;21007;-77
2022/01/28 07:21:24;;;;;;;18.37;3.80;;;3.10;98.60;;;;;;5083598;28;20234;-77
2022/01/28 07:23:51;;;;;;;22.97;4.70;;;3.10;98.80;;;;;;5079805;28;20317;-77
2022/01/28 07:26:18;;;;;;;16.77;4.00;;;3.10;98.50;;;;;;5082018;28;20236;-77
2022/01/28 07:28:46;;;;;;;27.57;4.83;;;3.00;98.70;;;;;;5080053;28;20233;-77
2022/01/28 07:31:15;;;;;;;13.37;3.10;;;3.00;98.80;;;;;;5077492;28;20230;-77
2022/01/28 07:33:42;;;;;;;18.50;4.30;;;3.00;98.90;;;;;;5078420;28;20701;-77
2022/01/28 07:36:10;;;;;;;18.57;3.90;;;3.00;98.80;;;;;;5076924;28;20241;-77
2022/01/28 07:38:37;;;;;;;15.67;4.03;;;3.00;99.30;;;;;;5081866;28;20229;-77
2022/01/28 07:41:05;;;;;;;17.83;4.30;;;3.00;98.90;;;;;;5076203;28;20222;-77
2022/01/28 07:43:34;;;;;;;26.07;5.07;;;3.00;99.00;;;;;;5079776;28;20225;-77
2022/01/28 07:46:01;;;;;;;20.63;4.63;;;3.00;99.10;;;;;;5082891;28;20304;-77
2022/01/28 07:48:28;;;;;;;24.47;4.60;;;3.00;99.10;;;;;;5082815;28;20223;-77
2022/01/28 07:50:55;;;;;;;23.53;3.90;;;3.00;99.20;;;;;;5078754;28;20298;-77
2022/01/28 07:53:23;;;;;;;19.93;4.03;;;3.00;99.10;;;;;;5072947;28;20245;-77
2022/01/28 07:55:50;;;;;;;21.63;4.87;;;3.00;99.10;;;;;;5082820;28;20276;-77
2022/01/28 07:58:16;;;;;;;18.03;4.57;;;3.10;99.20;;;;;;5079621;28;20600;-78
2022/01/28 08:00:43;;;;;;;23.07;4.40;;;3.00;99.10;;;;;;5080228;28;20225;-77
2022/01/28 08:03:10;;;;;;;21.33;4.63;;;3.10;99.30;;;;;;5079399;28;20226;-77
2022/01/28 08:05:36;;;;;;;22.93;4.43;;;3.10;99.30;;;;;;5074534;28;20314;-77
2022/01/28 08:08:05;;;;;;;20.87;4.03;;;3.10;99.20;;;;;;5084077;28;20228;-77
2022/01/28 08:10:33;;;;;;;17.10;4.13;;;3.10;99.30;;;;;;5080500;28;20726;-76
2022/01/28 08:13:03;;;;;;;21.47;4.50;;;3.20;99.30;;;;;;5081370;28;20226;-77
2022/01/28 08:15:30;;;;;;;23.73;5.10;;;3.20;99.30;;;;;;5074274;28;20266;-77
2022/01/28 08:17:57;;;;;;;26.40;4.40;;;3.30;99.40;;;;;;5076144;28;20226;-77
2022/01/28 08:20:24;;;;;;;23.30;4.30;;;3.30;99.30;;;;;;5081928;28;20230;-77
2022/01/28 08:22:53;;;;;;;21.23;5.17;;;3.40;99.40;;;;;;5077393;28;20329;-77
2022/01/28 08:25:22;;;;;;;21.10;5.03;;;3.40;99.40;;;;;;5080080;28;20226;-77
2022/01/28 08:27:52;;;;;;;24.40;4.90;;;3.50;99.60;;;;;;5078224;28;20222;-77
2022/01/28 08:30:21;;;;;;;19.73;4.30;;;3.60;99.50;;;;;;5079570;28;20279;-77
2022/01/28 08:32:49;;;;;;;23.97;5.43;;;3.70;99.50;;;;;;5074302;28;20222;-77
2022/01/28 08:35:17;;;;;;;22.43;4.40;;;3.80;99.40;;;;;;5074579;28;20229;-77
2022/01/28 08:37:46;;;;;;;19.47;4.37;;;3.90;99.40;;;;;;5080682;28;20234;-77
2022/01/28 08:40:14;;;;;;;22.73;4.90;;;4.00;99.70;;;;;;5088748;28;20227;-77
2022/01/28 08:42:41;;;;;;;27.07;5.63;;;4.20;99.60;;;;;;5083513;28;20352;-77
2022/01/28 08:45:10;;;;;;;22.20;4.83;;;4.40;99.60;;;;;;5076560;28;20225;-77
2022/01/28 08:47:37;;;;;;;21.10;4.57;;;4.60;99.70;;;;;;5084524;28;20235;-77
2022/01/28 08:50:04;;;;;;;22.77;5.37;;;4.80;99.30;;;;;;5081691;28;21026;-77
2022/01/28 08:52:31;;;;;;;20.37;4.80;;;5.10;99.10;;;;;;5088928;28;20236;-77
2022/01/28 08:54:58;;;;;;;19.80;4.70;;;5.30;99.20;;;;;;5073028;28;20234;-77
2022/01/28 08:57:24;;;;;;;21.17;4.40;;;5.60;99.00;;;;;;5077115;28;20237;-77
2022/01/28 08:59:51;;;;;;;16.10;4.30;;;5.80;99.10;;;;;;5084778;28;21036;-77
2022/01/28 09:02:19;;;;;;;22.60;5.03;;;6.10;98.60;;;;;;5082731;28;20221;-77
2022/01/28 09:04:46;;;;;;;27.87;5.27;;;6.30;98.40;;;;;;5085184;28;20240;-78
2022/01/28 09:07:13;;;;;;;18.57;4.67;;;6.60;98.40;;;;;;5083871;28;20277;-77
2022/01/28 09:09:48;;;;;;;18.87;4.93;;;6.70;97.90;;;;;;5085937;28;20240;-77
2022/01/28 09:12:30;;;;;;;16.83;4.80;;;6.90;97.60;;;;;;5084426;28;20335;-77
2022/01/28 09:14:57;;;;;;;19.50;5.10;;;7.00;97.50;;;;;;5076937;28;20224;-77
2022/01/28 09:17:26;;;;;;;17.93;4.80;;;7.20;97.30;;;;;;5081489;28;20592;-77
2022/01/28 09:19:52;;;;;;;20.47;4.77;;;7.30;97.20;;;;;;5084206;28;20809;-77
2022/01/28 09:22:19;;;;;;;17.93;4.67;;;7.50;97.10;;;;;;5084757;28;20680;-77
2022/01/28 09:24:46;;;;;;;20.03;4.30;;;7.60;97.00;;;;;;5081929;28;20268;-77
2022/01/28 09:27:13;;;;;;;23.40;4.93;;;7.70;96.90;;;;;;5087091;28;20234;-77
2022/01/28 09:29:40;;;;;;;17.90;4.23;;;7.90;96.70;;;;;;5080776;28;20237;-77
2022/01/28 09:32:08;;;;;;;19.33;4.50;;;8.00;96.50;;;;;;5084343;28;20249;-77
2022/01/28 09:34:36;;;;;;;19.63;4.93;;;8.10;96.20;;;;;;5081121;28;20229;-77
2022/01/28 09:37:03;;;;;;;18.67;4.80;;;8.20;95.70;;;;;;5086128;28;20331;-77
2022/01/28 09:39:32;;;;;;;11.57;3.87;;;8.20;95.90;;;;;;5080821;28;20243;-77
2022/01/28 09:42:02;;;;;;;21.87;5.83;;;8.30;95.90;;;;;;5078857;28;20283;-78
2022/01/28 09:44:31;;;;;;;16.23;4.07;;;8.30;95.40;;;;;;5088419;28;20233;-77
2022/01/28 09:46:59;;;;;;;16.67;4.70;;;8.40;95.30;;;;;;5083831;28;20230;-77
2022/01/28 09:49:26;;;;;;;21.80;5.73;;;8.40;95.10;;;;;;5086602;28;20325;-77
2022/01/28 09:51:54;;;;;;;20.17;4.47;;;8.50;95.20;;;;;;5083227;28;20239;-77
2022/01/28 09:54:21;;;;;;;16.63;4.13;;;8.50;94.90;;;;;;5073246;28;20230;-77
2022/01/28 09:56:48;;;;;;;13.27;3.93;;;8.60;95.00;;;;;;5085527;28;20215;-78
2022/01/28 09:59:14;;;;;;;22.87;5.13;;;8.60;95.10;;;;;;5083626;28;20567;-78
2022/01/28 10:01:48;;;;;;;19.60;4.83;;;8.80;95.20;;;;;;5085782;28;20244;-78
2022/01/28 10:04:17;;;;;;;15.90;3.80;;;8.90;94.60;;;;;;5083701;28;20739;-78
2022/01/28 10:06:45;;;;;;;13.10;3.80;;;9.10;95.10;;;;;;5084305;28;20669;-78
2022/01/28 10:09:16;;;;;;;14.77;4.10;;;9.30;94.70;;;;;;5084562;28;20695;-78
2022/01/28 10:11:45;;;;;;;14.70;3.87;;;9.50;94.50;;;;;;5080012;28;20228;-77
2022/01/28 10:14:15;;;;;;;19.60;4.33;;;9.60;94.50;;;;;;5077200;28;20242;-78
2022/01/28 10:16:42;;;;;;;17.63;4.40;;;9.70;94.10;;;;;;5082225;28;20234;-78
2022/01/28 10:19:10;;;;;;;17.40;3.90;;;9.80;93.70;;;;;;5077244;28;20219;-78
2022/01/28 10:21:38;;;;;;;13.40;3.93;;;9.80;93.40;;;;;;5083254;28;20978;-77
2022/01/28 10:24:09;;;;;;;17.90;4.10;;;9.70;93.20;;;;;;5083901;28;20219;-78
2022/01/28 10:26:40;;;;;;;12.70;3.97;;;9.70;93.10;;;;;;5083466;28;20227;-77
2022/01/28 10:29:09;;;;;;;17.03;4.50;;;9.80;93.00;;;;;;5083350;28;20731;-78
2022/01/28 10:31:42;;;;;;;14.93;3.93;;;9.80;93.00;;;;;;5080435;28;20783;-77
2022/01/28 10:34:30;;;;;;;19.00;3.90;;;9.80;93.10;;;;;;5078761;28;20234;-78
2022/01/28 10:37:12;;;;;;;15.90;4.03;;;9.90;92.90;;;;;;5080391;28;20227;-77
2022/01/28 10:39:41;;;;;;;16.97;4.53;;;9.90;92.60;;;;;;5083633;28;20717;-77
2022/01/28 10:42:11;;;;;;;12.40;3.67;;;9.90;92.70;;;;;;5078965;28;20227;-78
2022/01/28 10:44:52;;;;;;;12.97;4.03;;;9.90;92.30;;;;;;5083091;28;20278;-77
2022/01/28 10:47:31;;;;;;;16.03;4.00;;;9.90;92.20;;;;;;5081622;28;20224;-77
2022/01/28 10:49:58;;;;;;;11.73;3.50;;;10.00;92.20;;;;;;5076331;28;20740;-78
2022/01/28 10:52:33;;;;;;;14.03;3.43;;;10.10;93.10;;;;;;5081155;28;20233;-78
2022/01/28 10:55:00;;;;;;;14.10;4.17;;;10.20;92.60;;;;;;5078424;28;20251;-78
2022/01/28 10:57:30;;;;;;;14.10;3.93;;;10.30;92.40;;;;;;5083869;28;20233;-77
2022/01/28 10:59:58;;;;;;;14.23;4.37;;;10.30;92.20;;;;;;5077365;28;20221;-78
2022/01/28 11:02:26;;;;;;;16.13;3.80;;;10.40;92.20;;;;;;5074510;28;20237;-78
2022/01/28 11:04:56;;;;;;;12.00;3.30;;;10.50;91.90;;;;;;5079517;28;20223;-78
2022/01/28 11:07:23;;;;;;;14.93;4.03;;;10.50;91.80;;;;;;5074667;28;20220;-77
2022/01/28 11:09:50;;;;;;;14.63;3.87;;;10.50;91.90;;;;;;5079670;28;20343;-78
2022/01/28 11:12:18;;;;;;;14.67;3.30;;;10.60;91.50;;;;;;5081580;28;20714;-77
2022/01/28 11:14:46;;;;;;;12.37;4.03;;;10.60;91.50;;;;;;5077419;28;20237;-78
2022/01/28 11:17:16;;;;;;;9.30;3.23;;;10.60;91.30;;;;;;5083370;28;20235;-78
2022/01/28 11:19:44;;;;;;;13.03;3.47;;;10.60;91.50;;;;;;5076108;28;20229;-78
2022/01/28 11:22:28;;;;;;;13.53;3.43;;;10.70;91.20;;;;;;5082601;28;20229;-78
2022/01/28 11:25:09;;;;;;;13.40;3.30;;;10.70;90.80;;;;;;5073713;28;20264;-78
2022/01/28 11:27:38;;;;;;;13.37;3.33;;;10.70;90.60;;;;;;5076965;28;20234;-78
2022/01/28 11:30:24;;;;;;;12.90;3.13;;;10.60;90.70;;;;;;5081898;28;20315;-77
2022/01/28 11:33:01;;;;;;;11.40;3.70;;;10.60;90.30;;;;;;5076343;28;20710;-77
2022/01/28 11:35:37;;;;;;;10.80;2.67;;;10.60;90.40;;;;;;5079109;28;20224;-78
2022/01/28 11:38:36;;;;;;;10.13;3.07;;;10.60;90.60;;;;;;5076553;28;20218;-78
2022/01/28 11:41:08;;;;;;;10.53;3.33;;;10.60;90.20;;;;;;5084108;28;20220;-78
2022/01/28 11:43:43;;;;;;;13.80;3.83;;;10.70;90.60;;;;;;5078332;28;20242;-78
2022/01/28 11:46:18;;;;;;;12.13;3.33;;;10.70;91.00;;;;;;5077353;28;20312;-78
2022/01/28 11:49:24;;;;;;;11.17;3.00;;;10.70;90.40;;;;;;5077822;28;20232;-78
2022/01/28 11:51:52;;;;;;;11.10;2.73;;;10.70;90.00;;;;;;5079728;28;20250;-77
2022/01/28 11:54:38;;;;;;;11.13;3.17;;;10.70;90.30;;;;;;5069562;28;20225;-78
2022/01/28 11:57:29;;;;;;;14.87;3.57;;;10.70;90.10;;;;;;5073379;28;20234;-78
2022/01/28 12:00:22;;;;;;;13.53;3.10;;;10.60;88.80;;;;;;5050471;28;20238;-78
2022/01/28 12:02:52;;;;;;;13.90;3.13;;;10.50;88.40;;;;;;5082259;28;20342;-78
2022/01/28 12:05:39;;;;;;;11.80;3.60;;;10.40;89.00;;;;;;5081555;28;20232;-78
2022/01/28 12:08:07;;;;;;;13.80;3.37;;;10.30;90.00;;;;;;5058025;28;20235;-78
2022/01/28 12:10:40;;;;;;;12.80;3.30;;;10.30;90.00;;;;;;5082900;28;20229;-78
2022/01/28 12:13:12;;;;;;;13.87;3.40;;;10.20;89.70;;;;;;5075601;28;20307;-78
2022/01/28 12:16:09;;;;;;;13.43;3.30;;;10.20;90.00;;;;;;5083260;28;20236;-78
2022/01/28 12:18:53;;;;;;;12.00;2.80;;;10.10;90.00;;;;;;5076415;28;20222;-78
2022/01/28 12:21:23;;;;;;;16.13;3.50;;;10.10;89.40;;;;;;5076050;28;20235;-78
2022/01/28 12:23:50;;;;;;;12.13;3.13;;;10.00;89.00;;;;;;5077016;28;20313;-78
2022/01/28 12:26:19;;;;;;;13.60;3.77;;;10.00;89.90;;;;;;5081551;28;20689;-77
2022/01/28 12:28:56;;;;;;;13.63;3.50;;;10.00;90.00;;;;;;5073720;28;20233;-78
2022/01/28 12:31:26;;;;;;;11.47;3.07;;;9.90;89.20;;;;;;5078047;28;20240;-78
2022/01/28 12:33:56;;;;;;;10.13;2.70;;;10.00;89.50;;;;;;5081006;28;20229;-78
2022/01/28 12:36:25;;;;;;;8.70;2.80;;;10.00;89.80;;;;;;5079878;28;20379;-78
2022/01/28 12:39:09;;;;;;;10.87;3.17;;;10.00;89.00;;;;;;5080915;28;20233;-78
2022/01/28 12:41:51;;;;;;;12.73;3.33;;;10.00;89.20;;;;;;5080366;28;20226;-78
2022/01/28 12:44:18;;;;;;;15.73;2.80;;;10.00;90.00;;;;;;5075555;28;20230;-78
2022/01/28 12:46:50;;;;;;;14.37;3.40;;;10.00;89.50;;;;;;5074575;28;20221;-78
2022/01/28 12:49:24;;;;;;;11.77;3.27;;;10.00;89.10;;;;;;5077113;28;20227;-78
2022/01/28 12:51:56;;;;;;;11.40;2.83;;;9.90;88.50;;;;;;5083083;28;20235;-78
2022/01/28 12:54:34;;;;;;;13.53;3.33;;;9.90;89.30;;;;;;5079573;28;20248;-78
2022/01/28 12:57:01;;;;;;;16.83;3.30;;;9.90;90.00;;;;;;5080567;28;20324;-78
2022/01/28 12:59:27;;;;;;;11.03;3.50;;;9.90;89.80;;;;;;5081486;28;20239;-78
2022/01/28 13:01:55;;;;;;;9.80;3.07;;;9.90;90.20;;;;;;5080809;28;20688;-77
2022/01/28 13:04:36;;;;;;;11.43;3.40;;;9.90;89.80;;;;;;5078470;28;20216;-78
2022/01/28 13:09:50;;;;;;;14.37;3.57;;;9.90;90.10;;;;;;5079678;28;20221;-78
2022/01/28 13:12:23;;;;;;;10.97;3.03;;;9.80;90.30;;;;;;5080990;28;20330;-78
2022/01/28 13:14:50;;;;;;;12.07;3.70;;;9.80;90.40;;;;;;5072800;28;20249;-78
2022/01/28 13:17:20;;;;;;;15.70;3.50;;;9.80;90.40;;;;;;5080960;28;20307;-79
2022/01/28 13:19:55;;;;;;;14.67;3.40;;;9.80;90.20;;;;;;5079952;28;20221;-78
2022/01/28 13:22:24;;;;;;;14.93;3.90;;;9.70;90.00;;;;;;5080916;28;20227;-78
2022/01/28 13:24:52;;;;;;;11.40;3.37;;;9.70;90.10;;;;;;5074722;28;20337;-78
2022/01/28 13:27:20;;;;;;;13.00;3.60;;;9.60;90.30;;;;;;5076705;28;20223;-78
2022/01/28 13:29:51;;;;;;;16.43;3.83;;;9.50;90.20;;;;;;5072806;28;20760;-78
2022/01/28 13:32:23;;;;;;;10.53;3.33;;;9.40;89.90;;;;;;5079671;28;20712;-78
2022/01/28 13:34:52;;;;;;;11.57;3.60;;;9.30;89.90;;;;;;5076758;28;20223;-78
2022/01/28 13:37:36;;;;;;;13.57;4.00;;;9.10;90.20;;;;;;5081324;28;20703;-78
2022/01/28 13:40:04;;;;;;;19.07;4.17;;;8.90;90.50;;;;;;5077407;28;20531;-78
2022/01/28 13:42:31;;;;;;;19.10;4.70;;;8.80;90.90;;;;;;5079758;28;20288;-78
2022/01/28 13:45:03;;;;;;;16.53;4.17;;;8.80;91.10;;;;;;5081391;28;20621;-78
2022/01/28 13:47:48;;;;;;;15.17;3.67;;;8.70;91.30;;;;;;5082041;28;20287;-78
2022/01/28 13:50:27;;;;;;;16.70;4.40;;;8.70;91.40;;;;;;5080803;28;20219;-78
2022/01/28 13:53:33;;;;;;;17.70;4.47;;;8.70;91.40;;;;;;5076750;28;20225;-78
2022/01/28 13:56:07;;;;;;;20.40;4.20;;;8.50;91.30;;;;;;5077139;28;20350;-78
2022/01/28 13:58:48;;;;;;;17.67;4.27;;;8.40;91.50;;;;;;5076546;28;20302;-78